sensor_id;sensor_type;location;lat;lon;timestamp;P1;durP1;ratioP1;P2;durP2;ratioP2
71395;SDS011;59888;55.814;37.132;2022-10-30T00:00:17;6.80;;;3.15;;
71395;SDS011;59888;55.814;37.132;2022-10-30T00:02:45;5.80;;;3.22;;
71395;SDS011;59888;55.814;37.132;2022-10-30T00:05:11;4.82;;;3.00;;
71395;SDS011;59888;55.814;37.132;2022-10-30T00:07:37;5.30;;;3.05;;
71395;SDS011;59888;55.814;37.132;2022-10-30T00:10:03;5.07;;;2.75;;
71395;SDS011;59888;55.814;37.132;2022-10-30T00:12:29;3.70;;;2.78;;
71395;SDS011;59888;55.814;37.132;2022-10-30T00:14:55;6.05;;;2.80;;
71395;SDS011;59888;55.814;37.132;2022-10-30T00:17:21;6.93;;;3.00;;
71395;SDS011;59888;55.814;37.132;2022-10-30T00:19:46;4.25;;;2.50;;
71395;SDS011;59888;55.814;37.132;2022-10-30T00:22:12;6.45;;;3.38;;
71395;SDS011;59888;55.814;37.132;2022-10-30T00:24:38;4.45;;;2.75;;
71395;SDS011;59888;55.814;37.132;2022-10-30T00:27:04;4.35;;;3.10;;
71395;SDS011;59888;55.814;37.132;2022-10-30T00:29:29;6.40;;;3.13;;
71395;SDS011;59888;55.814;37.132;2022-10-30T00:31:55;5.28;;;3.53;;
71395;SDS011;59888;55.814;37.132;2022-10-30T00:34:21;5.57;;;3.22;;
71395;SDS011;59888;55.814;37.132;2022-10-30T00:36:47;5.32;;;3.35;;
71395;SDS011;59888;55.814;37.132;2022-10-30T00:39:13;4.53;;;3.10;;
71395;SDS011;59888;55.814;37.132;2022-10-30T00:41:38;6.35;;;3.08;;
71395;SDS011;59888;55.814;37.132;2022-10-30T00:46:56;7.28;;;3.65;;
71395;SDS011;59888;55.814;37.132;2022-10-30T00:49:25;7.88;;;3.60;;
71395;SDS011;59888;55.814;37.132;2022-10-30T00:51:51;7.85;;;3.55;;
71395;SDS011;59888;55.814;37.132;2022-10-30T00:54:19;6.47;;;3.15;;
71395;SDS011;59888;55.814;37.132;2022-10-30T00:56:46;6.22;;;3.70;;
71395;SDS011;59888;55.814;37.132;2022-10-30T00:59:16;7.53;;;3.90;;
71395;SDS011;59888;55.814;37.132;2022-10-30T01:01:47;5.03;;;3.50;;
71395;SDS011;59888;55.814;37.132;2022-10-30T01:04:12;5.93;;;3.60;;
71395;SDS011;59888;55.814;37.132;2022-10-30T01:06:40;7.95;;;3.80;;
71395;SDS011;59888;55.814;37.132;2022-10-30T01:09:09;7.93;;;4.18;;
71395;SDS011;59888;55.814;37.132;2022-10-30T01:11:35;9.07;;;3.72;;
71395;SDS011;59888;55.814;37.132;2022-10-30T01:14:03;8.40;;;4.03;;
71395;SDS011;59888;55.814;37.132;2022-10-30T01:19:41;6.35;;;4.03;;
71395;SDS011;59888;55.814;37.132;2022-10-30T01:32:28;6.82;;;3.80;;
71395;SDS011;59888;55.814;37.132;2022-10-30T01:35:51;6.40;;;3.65;;
71395;SDS011;59888;55.814;37.132;2022-10-30T01:38:14;6.72;;;3.35;;
71395;SDS011;59888;55.814;37.132;2022-10-30T01:40:49;8.77;;;4.20;;
71395;SDS011;59888;55.814;37.132;2022-10-30T01:43:15;7.95;;;4.00;;
71395;SDS011;59888;55.814;37.132;2022-10-30T01:48:53;7.80;;;3.60;;
71395;SDS011;59888;55.814;37.132;2022-10-30T01:55:01;5.95;;;3.45;;
71395;SDS011;59888;55.814;37.132;2022-10-30T02:00:09;7.53;;;3.13;;
71395;SDS011;59888;55.814;37.132;2022-10-30T02:02:45;6.10;;;3.67;;
71395;SDS011;59888;55.814;37.132;2022-10-30T02:05:15;3.95;;;2.78;;
71395;SDS011;59888;55.814;37.132;2022-10-30T02:07:52;5.95;;;2.53;;
71395;SDS011;59888;55.814;37.132;2022-10-30T02:10:18;7.43;;;2.35;;
71395;SDS011;59888;55.814;37.132;2022-10-30T02:12:44;4.43;;;2.50;;
71395;SDS011;59888;55.814;37.132;2022-10-30T02:15:11;4.47;;;2.42;;
71395;SDS011;59888;55.814;37.132;2022-10-30T02:17:37;6.22;;;2.50;;
71395;SDS011;59888;55.814;37.132;2022-10-30T02:20:05;3.78;;;2.13;;
71395;SDS011;59888;55.814;37.132;2022-10-30T02:22:32;4.72;;;2.72;;
71395;SDS011;59888;55.814;37.132;2022-10-30T02:24:58;3.90;;;2.20;;
71395;SDS011;59888;55.814;37.132;2022-10-30T02:27:24;4.30;;;2.30;;
71395;SDS011;59888;55.814;37.132;2022-10-30T02:29:49;5.07;;;2.30;;
71395;SDS011;59888;55.814;37.132;2022-10-30T02:32:15;6.15;;;2.42;;
71395;SDS011;59888;55.814;37.132;2022-10-30T02:34:42;3.50;;;1.95;;
71395;SDS011;59888;55.814;37.132;2022-10-30T02:37:08;3.95;;;2.00;;
71395;SDS011;59888;55.814;37.132;2022-10-30T02:39:34;6.50;;;2.50;;
71395;SDS011;59888;55.814;37.132;2022-10-30T02:42:02;5.63;;;2.22;;
71395;SDS011;59888;55.814;37.132;2022-10-30T02:44:30;4.82;;;2.20;;
71395;SDS011;59888;55.814;37.132;2022-10-30T02:46:55;5.50;;;2.20;;
71395;SDS011;59888;55.814;37.132;2022-10-30T02:49:22;3.70;;;1.80;;
71395;SDS011;59888;55.814;37.132;2022-10-30T02:51:49;3.75;;;1.58;;
71395;SDS011;59888;55.814;37.132;2022-10-30T02:54:16;4.93;;;2.65;;
71395;SDS011;59888;55.814;37.132;2022-10-30T02:56:42;3.40;;;2.00;;
71395;SDS011;59888;55.814;37.132;2022-10-30T02:59:07;3.67;;;2.00;;
71395;SDS011;59888;55.814;37.132;2022-10-30T03:01:33;3.15;;;1.42;;
71395;SDS011;59888;55.814;37.132;2022-10-30T03:03:59;3.42;;;1.80;;
71395;SDS011;59888;55.814;37.132;2022-10-30T03:06:25;3.90;;;2.05;;
71395;SDS011;59888;55.814;37.132;2022-10-30T03:08:51;6.32;;;1.85;;
71395;SDS011;59888;55.814;37.132;2022-10-30T03:11:17;3.80;;;2.08;;
71395;SDS011;59888;55.814;37.132;2022-10-30T03:13:45;3.03;;;2.03;;
71395;SDS011;59888;55.814;37.132;2022-10-30T03:16:13;3.33;;;1.70;;
71395;SDS011;59888;55.814;37.132;2022-10-30T03:18:44;6.75;;;1.80;;
71395;SDS011;59888;55.814;37.132;2022-10-30T03:21:12;6.88;;;1.83;;
71395;SDS011;59888;55.814;37.132;2022-10-30T03:23:40;4.40;;;2.00;;
71395;SDS011;59888;55.814;37.132;2022-10-30T03:26:06;3.50;;;2.00;;
71395;SDS011;59888;55.814;37.132;2022-10-30T03:28:39;4.47;;;2.10;;
71395;SDS011;59888;55.814;37.132;2022-10-30T03:31:06;5.00;;;2.30;;
71395;SDS011;59888;55.814;37.132;2022-10-30T03:33:34;4.45;;;1.27;;
71395;SDS011;59888;55.814;37.132;2022-10-30T03:36:02;4.63;;;1.83;;
71395;SDS011;59888;55.814;37.132;2022-10-30T03:38:29;6.15;;;1.70;;
71395;SDS011;59888;55.814;37.132;2022-10-30T03:40:55;5.57;;;1.60;;
71395;SDS011;59888;55.814;37.132;2022-10-30T03:43:20;3.85;;;1.50;;
71395;SDS011;59888;55.814;37.132;2022-10-30T03:45:47;5.97;;;1.70;;
71395;SDS011;59888;55.814;37.132;2022-10-30T03:48:15;2.20;;;1.30;;
71395;SDS011;59888;55.814;37.132;2022-10-30T03:50:43;4.90;;;1.58;;
71395;SDS011;59888;55.814;37.132;2022-10-30T03:53:10;4.05;;;1.40;;
71395;SDS011;59888;55.814;37.132;2022-10-30T03:55:37;3.20;;;1.00;;
71395;SDS011;59888;55.814;37.132;2022-10-30T03:58:03;2.97;;;1.20;;
71395;SDS011;59888;55.814;37.132;2022-10-30T04:00:30;3.30;;;1.33;;
71395;SDS011;59888;55.814;37.132;2022-10-30T04:02:57;3.17;;;1.15;;
71395;SDS011;59888;55.814;37.132;2022-10-30T04:05:25;4.50;;;1.10;;
71395;SDS011;59888;55.814;37.132;2022-10-30T04:07:55;6.03;;;1.33;;
71395;SDS011;59888;55.814;37.132;2022-10-30T04:10:22;2.90;;;1.02;;
71395;SDS011;59888;55.814;37.132;2022-10-30T04:12:48;4.95;;;1.05;;
71395;SDS011;59888;55.814;37.132;2022-10-30T04:15:14;4.72;;;1.10;;
71395;SDS011;59888;55.814;37.132;2022-10-30T04:17:40;4.78;;;1.10;;
71395;SDS011;59888;55.814;37.132;2022-10-30T04:20:18;2.83;;;1.10;;
71395;SDS011;59888;55.814;37.132;2022-10-30T04:22:44;4.18;;;1.20;;
71395;SDS011;59888;55.814;37.132;2022-10-30T04:25:16;4.88;;;1.30;;
71395;SDS011;59888;55.814;37.132;2022-10-30T04:27:42;2.65;;;1.20;;
71395;SDS011;59888;55.814;37.132;2022-10-30T04:30:10;3.25;;;1.10;;
71395;SDS011;59888;55.814;37.132;2022-10-30T04:32:44;4.22;;;1.25;;
71395;SDS011;59888;55.814;37.132;2022-10-30T04:35:14;4.70;;;1.30;;
71395;SDS011;59888;55.814;37.132;2022-10-30T04:37:50;6.00;;;1.15;;
71395;SDS011;59888;55.814;37.132;2022-10-30T04:40:17;5.60;;;1.10;;
71395;SDS011;59888;55.814;37.132;2022-10-30T04:42:50;3.38;;;0.93;;
71395;SDS011;59888;55.814;37.132;2022-10-30T04:45:17;3.88;;;1.20;;
71395;SDS011;59888;55.814;37.132;2022-10-30T04:47:43;2.72;;;1.10;;
71395;SDS011;59888;55.814;37.132;2022-10-30T04:50:09;2.85;;;1.13;;
71395;SDS011;59888;55.814;37.132;2022-10-30T04:52:36;2.63;;;1.35;;
71395;SDS011;59888;55.814;37.132;2022-10-30T04:55:02;3.50;;;1.10;;
71395;SDS011;59888;55.814;37.132;2022-10-30T04:57:29;2.63;;;1.08;;
71395;SDS011;59888;55.814;37.132;2022-10-30T04:59:56;9.27;;;1.30;;
71395;SDS011;59888;55.814;37.132;2022-10-30T05:02:22;6.32;;;1.20;;
71395;SDS011;59888;55.814;37.132;2022-10-30T05:04:48;6.63;;;1.27;;
71395;SDS011;59888;55.814;37.132;2022-10-30T05:07:14;3.78;;;1.05;;
71395;SDS011;59888;55.814;37.132;2022-10-30T05:09:41;3.63;;;1.27;;
71395;SDS011;59888;55.814;37.132;2022-10-30T05:12:08;5.47;;;1.48;;
71395;SDS011;59888;55.814;37.132;2022-10-30T05:14:46;3.78;;;1.10;;
71395;SDS011;59888;55.814;37.132;2022-10-30T05:17:12;5.35;;;1.10;;
71395;SDS011;59888;55.814;37.132;2022-10-30T05:19:38;6.50;;;1.10;;
71395;SDS011;59888;55.814;37.132;2022-10-30T05:22:04;2.40;;;1.10;;
71395;SDS011;59888;55.814;37.132;2022-10-30T05:24:30;4.30;;;1.15;;
71395;SDS011;59888;55.814;37.132;2022-10-30T05:26:56;6.50;;;1.50;;
71395;SDS011;59888;55.814;37.132;2022-10-30T05:29:22;2.13;;;0.77;;
71395;SDS011;59888;55.814;37.132;2022-10-30T05:31:48;4.45;;;1.00;;
71395;SDS011;59888;55.814;37.132;2022-10-30T05:34:14;3.00;;;0.88;;
71395;SDS011;59888;55.814;37.132;2022-10-30T05:36:41;2.40;;;0.85;;
71395;SDS011;59888;55.814;37.132;2022-10-30T05:39:08;5.10;;;1.00;;
71395;SDS011;59888;55.814;37.132;2022-10-30T05:41:38;2.28;;;0.80;;
71395;SDS011;59888;55.814;37.132;2022-10-30T05:44:04;2.90;;;1.05;;
71395;SDS011;59888;55.814;37.132;2022-10-30T05:46:31;1.15;;;0.60;;
71395;SDS011;59888;55.814;37.132;2022-10-30T05:49:07;1.15;;;0.57;;
71395;SDS011;59888;55.814;37.132;2022-10-30T05:51:32;2.80;;;0.70;;
71395;SDS011;59888;55.814;37.132;2022-10-30T05:54:03;1.48;;;0.57;;
71395;SDS011;59888;55.814;37.132;2022-10-30T05:56:30;2.25;;;0.43;;
71395;SDS011;59888;55.814;37.132;2022-10-30T05:58:57;2.92;;;0.50;;
71395;SDS011;59888;55.814;37.132;2022-10-30T06:01:24;2.13;;;0.70;;
71395;SDS011;59888;55.814;37.132;2022-10-30T06:03:53;5.55;;;0.40;;
71395;SDS011;59888;55.814;37.132;2022-10-30T06:06:19;0.90;;;0.30;;
71395;SDS011;59888;55.814;37.132;2022-10-30T06:08:45;4.35;;;0.40;;
71395;SDS011;59888;55.814;37.132;2022-10-30T06:11:33;1.20;;;0.40;;
71395;SDS011;59888;55.814;37.132;2022-10-30T06:13:59;1.75;;;0.40;;
71395;SDS011;59888;55.814;37.132;2022-10-30T06:16:55;1.00;;;0.40;;
71395;SDS011;59888;55.814;37.132;2022-10-30T06:19:48;3.78;;;0.70;;
71395;SDS011;59888;55.814;37.132;2022-10-30T06:22:33;0.90;;;0.40;;
71395;SDS011;59888;55.814;37.132;2022-10-30T06:25:09;1.85;;;0.30;;
71395;SDS011;59888;55.814;37.132;2022-10-30T06:27:50;1.65;;;0.32;;
71395;SDS011;59888;55.814;37.132;2022-10-30T06:30:21;0.32;;;0.30;;
71395;SDS011;59888;55.814;37.132;2022-10-30T06:32:49;1.85;;;0.40;;
71395;SDS011;59888;55.814;37.132;2022-10-30T06:35:20;2.15;;;0.40;;
71395;SDS011;59888;55.814;37.132;2022-10-30T06:37:46;2.95;;;0.40;;
71395;SDS011;59888;55.814;37.132;2022-10-30T06:40:14;1.23;;;0.50;;
71395;SDS011;59888;55.814;37.132;2022-10-30T06:43:06;2.10;;;0.40;;
71395;SDS011;59888;55.814;37.132;2022-10-30T06:45:38;1.48;;;0.30;;
71395;SDS011;59888;55.814;37.132;2022-10-30T06:48:05;1.58;;;0.52;;
71395;SDS011;59888;55.814;37.132;2022-10-30T06:50:36;0.40;;;0.40;;
71395;SDS011;59888;55.814;37.132;2022-10-30T06:53:02;0.95;;;0.60;;
71395;SDS011;59888;55.814;37.132;2022-10-30T06:55:29;1.83;;;0.47;;
71395;SDS011;59888;55.814;37.132;2022-10-30T06:58:07;1.25;;;0.47;;
71395;SDS011;59888;55.814;37.132;2022-10-30T07:00:46;1.88;;;0.35;;
71395;SDS011;59888;55.814;37.132;2022-10-30T07:03:14;1.50;;;0.60;;
71395;SDS011;59888;55.814;37.132;2022-10-30T07:05:40;2.47;;;0.82;;
71395;SDS011;59888;55.814;37.132;2022-10-30T07:08:06;1.58;;;0.50;;
71395;SDS011;59888;55.814;37.132;2022-10-30T07:10:32;1.17;;;0.40;;
71395;SDS011;59888;55.814;37.132;2022-10-30T07:13:17;1.13;;;0.40;;
71395;SDS011;59888;55.814;37.132;2022-10-30T07:15:49;0.77;;;0.38;;
71395;SDS011;59888;55.814;37.132;2022-10-30T07:18:32;0.40;;;0.30;;
71395;SDS011;59888;55.814;37.132;2022-10-30T07:21:00;1.48;;;0.40;;
71395;SDS011;59888;55.814;37.132;2022-10-30T07:23:26;3.50;;;0.63;;
71395;SDS011;59888;55.814;37.132;2022-10-30T07:26:00;1.02;;;0.30;;
71395;SDS011;59888;55.814;37.132;2022-10-30T07:28:42;1.52;;;0.40;;
71395;SDS011;59888;55.814;37.132;2022-10-30T07:31:18;1.75;;;0.52;;
71395;SDS011;59888;55.814;37.132;2022-10-30T07:33:50;0.85;;;0.38;;
71395;SDS011;59888;55.814;37.132;2022-10-30T07:36:29;1.95;;;0.55;;
71395;SDS011;59888;55.814;37.132;2022-10-30T07:39:27;3.25;;;0.50;;
71395;SDS011;59888;55.814;37.132;2022-10-30T07:42:13;1.13;;;0.50;;
71395;SDS011;59888;55.814;37.132;2022-10-30T07:45:02;2.40;;;0.40;;
71395;SDS011;59888;55.814;37.132;2022-10-30T07:47:41;1.23;;;0.38;;
71395;SDS011;59888;55.814;37.132;2022-10-30T07:50:23;1.75;;;0.40;;
71395;SDS011;59888;55.814;37.132;2022-10-30T07:52:49;2.42;;;0.50;;
71395;SDS011;59888;55.814;37.132;2022-10-30T07:55:20;0.75;;;0.38;;
71395;SDS011;59888;55.814;37.132;2022-10-30T07:57:46;2.42;;;0.50;;
71395;SDS011;59888;55.814;37.132;2022-10-30T08:00:32;0.68;;;0.40;;
71395;SDS011;59888;55.814;37.132;2022-10-30T08:03:21;1.50;;;0.50;;
71395;SDS011;59888;55.814;37.132;2022-10-30T08:05:56;0.65;;;0.40;;
71395;SDS011;59888;55.814;37.132;2022-10-30T08:08:33;1.95;;;0.50;;
71395;SDS011;59888;55.814;37.132;2022-10-30T08:11:08;1.17;;;0.28;;
71395;SDS011;59888;55.814;37.132;2022-10-30T08:13:34;1.85;;;0.65;;
71395;SDS011;59888;55.814;37.132;2022-10-30T08:16:00;0.77;;;0.43;;
71395;SDS011;59888;55.814;37.132;2022-10-30T08:18:26;1.88;;;0.55;;
71395;SDS011;59888;55.814;37.132;2022-10-30T08:20:52;1.80;;;0.57;;
71395;SDS011;59888;55.814;37.132;2022-10-30T08:23:18;2.17;;;0.50;;
71395;SDS011;59888;55.814;37.132;2022-10-30T08:25:46;0.95;;;0.40;;
71395;SDS011;59888;55.814;37.132;2022-10-30T08:28:11;0.80;;;0.40;;
71395;SDS011;59888;55.814;37.132;2022-10-30T08:30:39;1.05;;;0.40;;
71395;SDS011;59888;55.814;37.132;2022-10-30T08:33:10;1.55;;;0.50;;
71395;SDS011;59888;55.814;37.132;2022-10-30T08:35:57;1.23;;;0.40;;
71395;SDS011;59888;55.814;37.132;2022-10-30T08:38:25;1.17;;;0.40;;
71395;SDS011;59888;55.814;37.132;2022-10-30T08:41:10;9.55;;;0.85;;
71395;SDS011;59888;55.814;37.132;2022-10-30T08:43:42;2.35;;;0.40;;
71395;SDS011;59888;55.814;37.132;2022-10-30T08:46:08;1.95;;;0.55;;
71395;SDS011;59888;55.814;37.132;2022-10-30T08:48:34;1.33;;;0.60;;
71395;SDS011;59888;55.814;37.132;2022-10-30T08:51:01;1.63;;;0.55;;
71395;SDS011;59888;55.814;37.132;2022-10-30T08:53:33;3.13;;;0.50;;
71395;SDS011;59888;55.814;37.132;2022-10-30T08:56:01;1.58;;;0.40;;
71395;SDS011;59888;55.814;37.132;2022-10-30T08:58:41;2.95;;;0.70;;
71395;SDS011;59888;55.814;37.132;2022-10-30T09:01:07;1.35;;;0.45;;
71395;SDS011;59888;55.814;37.132;2022-10-30T09:04:12;2.55;;;1.00;;
71395;SDS011;59888;55.814;37.132;2022-10-30T09:06:56;3.90;;;0.60;;
71395;SDS011;59888;55.814;37.132;2022-10-30T09:09:40;3.55;;;1.10;;
71395;SDS011;59888;55.814;37.132;2022-10-30T09:12:07;1.00;;;0.50;;
71395;SDS011;59888;55.814;37.132;2022-10-30T09:14:39;1.60;;;0.70;;
71395;SDS011;59888;55.814;37.132;2022-10-30T09:17:07;3.25;;;0.73;;
71395;SDS011;59888;55.814;37.132;2022-10-30T09:19:34;0.80;;;0.57;;
71395;SDS011;59888;55.814;37.132;2022-10-30T09:22:00;2.33;;;0.80;;
71395;SDS011;59888;55.814;37.132;2022-10-30T09:24:27;1.95;;;0.60;;
71395;SDS011;59888;55.814;37.132;2022-10-30T09:26:54;3.80;;;0.63;;
71395;SDS011;59888;55.814;37.132;2022-10-30T09:29:23;1.42;;;0.50;;
71395;SDS011;59888;55.814;37.132;2022-10-30T09:32:08;9.07;;;1.13;;
71395;SDS011;59888;55.814;37.132;2022-10-30T09:34:46;2.42;;;0.70;;
71395;SDS011;59888;55.814;37.132;2022-10-30T09:37:16;1.98;;;0.60;;
71395;SDS011;59888;55.814;37.132;2022-10-30T09:39:46;3.70;;;1.20;;
71395;SDS011;59888;55.814;37.132;2022-10-30T09:48:05;8.77;;;1.90;;
71395;SDS011;59888;55.814;37.132;2022-10-30T09:53:40;1.55;;;0.50;;
71395;SDS011;59888;55.814;37.132;2022-10-30T09:56:26;7.95;;;0.90;;
71395;SDS011;59888;55.814;37.132;2022-10-30T10:01:41;0.98;;;0.40;;
71395;SDS011;59888;55.814;37.132;2022-10-30T10:04:23;0.55;;;0.40;;
71395;SDS011;59888;55.814;37.132;2022-10-30T10:10:38;1.95;;;0.60;;
71395;SDS011;59888;55.814;37.132;2022-10-30T10:16:02;1.30;;;0.77;;
71395;SDS011;59888;55.814;37.132;2022-10-30T10:18:45;2.28;;;0.80;;
71395;SDS011;59888;55.814;37.132;2022-10-30T10:21:14;1.52;;;0.35;;
71395;SDS011;59888;55.814;37.132;2022-10-30T10:23:48;1.13;;;0.47;;
71395;SDS011;59888;55.814;37.132;2022-10-30T10:29:33;1.35;;;0.50;;
71395;SDS011;59888;55.814;37.132;2022-10-30T10:53:32;1.08;;;0.47;;
71395;SDS011;59888;55.814;37.132;2022-10-30T10:55:45;2.97;;;0.50;;
71395;SDS011;59888;55.814;37.132;2022-10-30T10:58:17;3.15;;;0.80;;
71395;SDS011;59888;55.814;37.132;2022-10-30T11:00:50;2.08;;;0.60;;
71395;SDS011;59888;55.814;37.132;2022-10-30T11:03:19;3.42;;;0.90;;
71395;SDS011;59888;55.814;37.132;2022-10-30T11:06:01;2.10;;;0.70;;
71395;SDS011;59888;55.814;37.132;2022-10-30T11:08:37;1.17;;;0.65;;
71395;SDS011;59888;55.814;37.132;2022-10-30T11:11:04;7.20;;;1.42;;
71395;SDS011;59888;55.814;37.132;2022-10-30T11:13:35;1.50;;;0.50;;
71395;SDS011;59888;55.814;37.132;2022-10-30T11:18:45;3.10;;;0.90;;
71395;SDS011;59888;55.814;37.132;2022-10-30T11:21:16;2.17;;;0.70;;
71395;SDS011;59888;55.814;37.132;2022-10-30T11:23:46;2.28;;;0.57;;
71395;SDS011;59888;55.814;37.132;2022-10-30T11:28:52;2.05;;;0.60;;
71395;SDS011;59888;55.814;37.132;2022-10-30T11:31:25;2.97;;;0.68;;
71395;SDS011;59888;55.814;37.132;2022-10-30T11:36:43;1.20;;;0.50;;
71395;SDS011;59888;55.814;37.132;2022-10-30T11:39:11;0.60;;;0.40;;
71395;SDS011;59888;55.814;37.132;2022-10-30T11:44:33;1.52;;;0.60;;
71395;SDS011;59888;55.814;37.132;2022-10-30T11:46:59;0.65;;;0.43;;
71395;SDS011;59888;55.814;37.132;2022-10-30T11:49:28;2.00;;;0.60;;
71395;SDS011;59888;55.814;37.132;2022-10-30T11:51:56;1.52;;;0.60;;
71395;SDS011;59888;55.814;37.132;2022-10-30T11:54:22;2.85;;;0.68;;
71395;SDS011;59888;55.814;37.132;2022-10-30T11:56:48;2.92;;;0.65;;
71395;SDS011;59888;55.814;37.132;2022-10-30T11:59:19;3.13;;;0.73;;
71395;SDS011;59888;55.814;37.132;2022-10-30T12:01:56;1.20;;;0.68;;
71395;SDS011;59888;55.814;37.132;2022-10-30T12:04:27;2.95;;;0.70;;
71395;SDS011;59888;55.814;37.132;2022-10-30T12:07:07;1.77;;;0.73;;
71395;SDS011;59888;55.814;37.132;2022-10-30T12:09:40;2.05;;;0.60;;
71395;SDS011;59888;55.814;37.132;2022-10-30T12:12:11;4.15;;;0.77;;
71395;SDS011;59888;55.814;37.132;2022-10-30T12:14:50;3.80;;;0.80;;
71395;SDS011;59888;55.814;37.132;2022-10-30T12:17:17;2.13;;;0.90;;
71395;SDS011;59888;55.814;37.132;2022-10-30T12:19:53;3.35;;;1.10;;
71395;SDS011;59888;55.814;37.132;2022-10-30T12:22:23;2.28;;;0.90;;
71395;SDS011;59888;55.814;37.132;2022-10-30T12:24:54;4.60;;;1.45;;
71395;SDS011;59888;55.814;37.132;2022-10-30T12:27:21;1.50;;;0.70;;
71395;SDS011;59888;55.814;37.132;2022-10-30T12:32:22;2.38;;;1.17;;
71395;SDS011;59888;55.814;37.132;2022-10-30T12:34:56;3.80;;;2.25;;
71395;SDS011;59888;55.814;37.132;2022-10-30T12:37:33;2.30;;;1.02;;
71395;SDS011;59888;55.814;37.132;2022-10-30T12:40:09;3.95;;;1.92;;
71395;SDS011;59888;55.814;37.132;2022-10-30T12:42:41;3.53;;;1.58;;
71395;SDS011;59888;55.814;37.132;2022-10-30T12:45:20;1.35;;;0.73;;
71395;SDS011;59888;55.814;37.132;2022-10-30T12:48:02;7.10;;;0.45;;
71395;SDS011;59888;55.814;37.132;2022-10-30T12:51:02;2.20;;;0.70;;
71395;SDS011;59888;55.814;37.132;2022-10-30T12:53:56;1.10;;;0.50;;
71395;SDS011;59888;55.814;37.132;2022-10-30T12:56:41;1.10;;;0.50;;
71395;SDS011;59888;55.814;37.132;2022-10-30T13:04:47;3.72;;;1.42;;
71395;SDS011;59888;55.814;37.132;2022-10-30T13:07:23;2.00;;;0.80;;
71395;SDS011;59888;55.814;37.132;2022-10-30T13:12:26;2.28;;;1.05;;
71395;SDS011;59888;55.814;37.132;2022-10-30T13:15:05;1.45;;;0.80;;
71395;SDS011;59888;55.814;37.132;2022-10-30T13:17:42;2.22;;;0.80;;
71395;SDS011;59888;55.814;37.132;2022-10-30T13:20:12;2.33;;;0.90;;
71395;SDS011;59888;55.814;37.132;2022-10-30T13:25:26;2.05;;;0.70;;
71395;SDS011;59888;55.814;37.132;2022-10-30T13:28:27;1.35;;;0.70;;
71395;SDS011;59888;55.814;37.132;2022-10-30T13:33:50;1.95;;;0.70;;
71395;SDS011;59888;55.814;37.132;2022-10-30T13:50:36;2.45;;;0.80;;
71395;SDS011;59888;55.814;37.132;2022-10-30T13:53:21;2.22;;;0.70;;
71395;SDS011;59888;55.814;37.132;2022-10-30T13:55:51;1.02;;;0.57;;
71395;SDS011;59888;55.814;37.132;2022-10-30T13:58:24;2.30;;;0.70;;
71395;SDS011;59888;55.814;37.132;2022-10-30T14:01:36;4.70;;;1.07;;
71395;SDS011;59888;55.814;37.132;2022-10-30T14:15:14;2.22;;;0.75;;
71395;SDS011;59888;55.814;37.132;2022-10-30T14:20:38;4.68;;;1.30;;
71395;SDS011;59888;55.814;37.132;2022-10-30T14:28:36;1.98;;;0.98;;
71395;SDS011;59888;55.814;37.132;2022-10-30T14:36:11;2.78;;;1.20;;
71395;SDS011;59888;55.814;37.132;2022-10-30T14:38:37;2.40;;;1.20;;
71395;SDS011;59888;55.814;37.132;2022-10-30T14:41:04;2.35;;;1.10;;
71395;SDS011;59888;55.814;37.132;2022-10-30T14:46:58;3.17;;;0.70;;
71395;SDS011;59888;55.814;37.132;2022-10-30T14:52:28;1.27;;;0.80;;
71395;SDS011;59888;55.814;37.132;2022-10-30T15:11:25;3.22;;;1.05;;
71395;SDS011;59888;55.814;37.132;2022-10-30T15:14:03;2.22;;;0.70;;
71395;SDS011;59888;55.814;37.132;2022-10-30T15:16:35;1.63;;;0.50;;
71395;SDS011;59888;55.814;37.132;2022-10-30T15:19:07;2.72;;;0.70;;
71395;SDS011;59888;55.814;37.132;2022-10-30T15:21:43;2.85;;;0.63;;
71395;SDS011;59888;55.814;37.132;2022-10-30T15:24:13;2.13;;;0.60;;
71395;SDS011;59888;55.814;37.132;2022-10-30T15:26:41;1.50;;;0.68;;
71395;SDS011;59888;55.814;37.132;2022-10-30T15:29:15;1.13;;;0.60;;
71395;SDS011;59888;55.814;37.132;2022-10-30T15:31:43;1.08;;;0.45;;
71395;SDS011;59888;55.814;37.132;2022-10-30T15:34:20;2.38;;;0.70;;
71395;SDS011;59888;55.814;37.132;2022-10-30T15:36:47;1.38;;;0.70;;
71395;SDS011;59888;55.814;37.132;2022-10-30T15:39:13;2.33;;;0.57;;
71395;SDS011;59888;55.814;37.132;2022-10-30T15:41:42;3.40;;;1.30;;
71395;SDS011;59888;55.814;37.132;2022-10-30T15:44:15;2.85;;;0.60;;
71395;SDS011;59888;55.814;37.132;2022-10-30T15:46:47;1.52;;;0.80;;
71395;SDS011;59888;55.814;37.132;2022-10-30T15:49:19;2.30;;;1.10;;
71395;SDS011;59888;55.814;37.132;2022-10-30T15:51:52;2.95;;;1.90;;
71395;SDS011;59888;55.814;37.132;2022-10-30T15:54:18;3.95;;;1.50;;
71395;SDS011;59888;55.814;37.132;2022-10-30T15:56:47;1.50;;;0.60;;
71395;SDS011;59888;55.814;37.132;2022-10-30T15:59:22;1.50;;;0.70;;
71395;SDS011;59888;55.814;37.132;2022-10-30T16:01:54;1.85;;;0.60;;
71395;SDS011;59888;55.814;37.132;2022-10-30T16:04:24;1.00;;;0.50;;
71395;SDS011;59888;55.814;37.132;2022-10-30T16:07:00;1.90;;;0.50;;
71395;SDS011;59888;55.814;37.132;2022-10-30T16:09:36;2.15;;;0.55;;
71395;SDS011;59888;55.814;37.132;2022-10-30T16:12:02;0.95;;;0.50;;
71395;SDS011;59888;55.814;37.132;2022-10-30T16:14:31;2.95;;;0.60;;
71395;SDS011;59888;55.814;37.132;2022-10-30T16:17:01;0.82;;;0.43;;
71395;SDS011;59888;55.814;37.132;2022-10-30T16:19:30;1.50;;;0.68;;
71395;SDS011;59888;55.814;37.132;2022-10-30T16:22:03;1.33;;;0.70;;
71395;SDS011;59888;55.814;37.132;2022-10-30T16:24:31;1.30;;;0.70;;
71395;SDS011;59888;55.814;37.132;2022-10-30T16:27:02;1.15;;;0.55;;
71395;SDS011;59888;55.814;37.132;2022-10-30T16:29:38;2.17;;;1.10;;
71395;SDS011;59888;55.814;37.132;2022-10-30T16:32:11;4.05;;;1.80;;
71395;SDS011;59888;55.814;37.132;2022-10-30T16:34:40;2.40;;;1.13;;
71395;SDS011;59888;55.814;37.132;2022-10-30T16:39:56;1.60;;;0.57;;
71395;SDS011;59888;55.814;37.132;2022-10-30T16:42:26;2.35;;;0.70;;
71395;SDS011;59888;55.814;37.132;2022-10-30T16:45:02;2.50;;;0.70;;
71395;SDS011;59888;55.814;37.132;2022-10-30T16:47:39;1.67;;;0.70;;
71395;SDS011;59888;55.814;37.132;2022-10-30T16:50:09;1.17;;;0.57;;
71395;SDS011;59888;55.814;37.132;2022-10-30T16:52:40;1.88;;;0.70;;
71395;SDS011;59888;55.814;37.132;2022-10-30T16:55:08;1.17;;;0.60;;
71395;SDS011;59888;55.814;37.132;2022-10-30T16:57:52;2.22;;;1.13;;
71395;SDS011;59888;55.814;37.132;2022-10-30T17:00:22;3.70;;;1.35;;
71395;SDS011;59888;55.814;37.132;2022-10-30T17:02:50;3.65;;;1.45;;
71395;SDS011;59888;55.814;37.132;2022-10-30T17:05:24;2.47;;;1.00;;
71395;SDS011;59888;55.814;37.132;2022-10-30T17:07:55;2.42;;;1.02;;
71395;SDS011;59888;55.814;37.132;2022-10-30T17:19:01;2.45;;;0.60;;
71395;SDS011;59888;55.814;37.132;2022-10-30T17:21:55;1.08;;;0.60;;
71395;SDS011;59888;55.814;37.132;2022-10-30T17:24:33;2.67;;;0.70;;
71395;SDS011;59888;55.814;37.132;2022-10-30T17:27:02;3.97;;;0.73;;
71395;SDS011;59888;55.814;37.132;2022-10-30T17:32:05;2.53;;;0.90;;
71395;SDS011;59888;55.814;37.132;2022-10-30T17:34:47;3.38;;;0.70;;
71395;SDS011;59888;55.814;37.132;2022-10-30T17:37:17;1.80;;;0.60;;
71395;SDS011;59888;55.814;37.132;2022-10-30T17:39:42;1.33;;;0.70;;
71395;SDS011;59888;55.814;37.132;2022-10-30T17:42:08;2.25;;;0.70;;
71395;SDS011;59888;55.814;37.132;2022-10-30T17:44:35;1.70;;;0.60;;
71395;SDS011;59888;55.814;37.132;2022-10-30T17:47:15;2.60;;;0.77;;